NYSE:MOS - Mosaic Institutional Ownership

$21.48
-0.33 (-1.51 %)
(As of 09/18/2019 01:31 PM ET)
Today's Range
$21.32
Now: $21.48
$21.85
50-Day Range
$17.73
MA: $20.75
$25.48
52-Week Range
$17.36
Now: $21.48
$37.37
Volume2.78 million shs
Average Volume4.91 million shs
Market Capitalization$8.29 billion
P/E Ratio10.13
Dividend Yield0.88%
Beta1.65

Institutional Ownership

Institutional Ownership Changes (13F Filings) for Mosaic (NYSE:MOS)

Institutional Ownership Percentage: 74.89%

Mosaic (NYSE MOS) Institutional Buying and Selling

Reporting DateHedge FundShares HeldMarket Value% of PortfolioQuarterly Change in SharesOwnership in Company
9/6/2019BRITISH COLUMBIA INVESTMENT MANAGEMENT Corp104,078$2.61M0.0%+3.5%0.027%
8/26/2019Boston Partners17,270,504$432.14M0.6%+0.1%4.476%
8/26/2019Toronto Dominion Bank289,983$7.26M0.0%-66.9%0.075%
8/23/2019BlackRock Inc.24,142,634$604.29M0.0%-2.8%6.257%
8/20/2019Barings LLC69,102$1.73M0.0%-3.6%0.018%
8/17/2019Kovitz Investment Group Partners LLC140,002$3.50M0.1%-2.2%0.036%
8/17/2019B.S. Pension Fund Trustee Ltd acting for the British Steel Pension Fund5,703$0.14M0.0%-52.2%0.001%
8/17/2019Ladenburg Thalmann Financial Services Inc.15,981$0.40M0.0%-7.4%0.004%
8/16/2019First Manhattan Co.128,008$3.20M0.0%-3.9%0.033%
8/16/2019Eaton Vance Management36,536$0.91M0.0%+36.7%0.009%
8/16/2019Amundi Pioneer Asset Management Inc.1,090,469$30.99M0.0%-7.6%0.283%
8/16/2019United Services Automobile Association1,632,862$40.87M0.1%+1.0%0.423%
8/15/2019California Public Employees Retirement System716,991$17.95M0.0%-21.9%0.186%
8/15/2019Cambridge Investment Research Advisors Inc.118,357$2.96M0.0%-12.7%0.031%
8/15/2019BRYN MAWR TRUST Co302,211$7.57M0.4%+4.2%0.078%
8/15/2019BMT Investment Advisors58,902$1.47M0.8%+15.7%0.015%
8/15/2019Worldquant Millennium Advisors LLC770,483$19.29M0.4%-45.9%0.200%
8/15/2019Pictet Asset Management Ltd.174,474$4.37M0.0%+46.6%0.045%
8/15/2019Stonebridge Capital Advisors LLC1,285$32K0.0%N/A0.000%
8/15/2019Nuveen Asset Management LLC6,286,041$157.34M0.1%+73,897.0%1.629%
8/15/2019Andra AP fonden146,700$3.67M0.1%+69.4%0.038%
8/15/2019Price T Rowe Associates Inc. MD637,303$15.95M0.0%+1.7%0.165%
8/15/2019Bank of Hawaii27,681$0.69M0.1%-9.2%0.007%
8/15/2019Victory Capital Management Inc.89,337$2.24M0.0%-49.7%0.023%
8/15/2019UBS Asset Management Americas Inc.1,457,454$36.48M0.0%+0.6%0.378%
8/15/2019CSat Investment Advisory L.P.3,076$77K0.0%+196.9%0.001%
8/14/2019Point72 Hong Kong Ltd4,122$0.10M0.0%N/A0.001%
8/14/2019Cubist Systematic Strategies LLC67,670$1.69M0.0%+26.3%0.018%
8/14/2019California State Teachers Retirement System583,977$14.62M0.0%-1.8%0.151%
8/14/2019Marshall Wace LLP886,438$22.19M0.2%+2,241.2%0.230%
8/14/2019Zurich Insurance Group Ltd FI43,215$1.08M0.0%+4.1%0.011%
8/14/2019Morgan Stanley970,650$24.30M0.0%+8.5%0.252%
8/14/2019AQR Capital Management LLC1,203,415$29.65M0.0%-17.9%0.312%
8/14/2019Brookfield Asset Management Inc.78,046$1.95M0.0%+97.4%0.020%
8/14/2019Marshall Wace North America L.P.641,536$16.06M0.1%N/A0.166%
8/14/2019Balyasny Asset Management LLC731,464$18.31M0.1%+867.0%0.190%
8/14/2019Anchor Bolt Capital LP195,143$4.88M0.5%N/A0.051%
8/14/2019Centerstone Investors LLC479,163$11.99M7.5%+66.5%0.124%
8/14/2019Invesco Ltd.2,671,480$66.87M0.0%-66.0%0.692%
8/14/2019Vanguard Group Inc.40,070,980$1B0.0%-2.4%10.387%
8/14/2019Cohen & Steers Inc.61,819$1.55M0.0%-41.6%0.016%
8/14/2019CoreCommodity Management LLC88,983$2.23M1.2%+188.5%0.023%
8/14/2019SRB Corp22,330$0.56M0.1%N/A0.006%
8/14/2019Ellington Management Group LLC32,200$0.81M0.1%N/A0.008%
8/14/2019Private Advisor Group LLC52,517$1.31M0.0%+50.1%0.014%
8/14/2019AMP Capital Investors Ltd299,360$7.30M0.0%-7.8%0.078%
8/14/2019A.R.T. Advisors LLC124,100$3.11M0.2%+2.5%0.032%
8/14/2019National Pension Service11,297$0.28M0.0%N/A0.003%
8/14/2019Rampart Investment Management Company LLC8,608$0.22M0.0%-88.8%0.002%
8/14/2019Lido Advisors LLC14,648$0.37M0.0%N/A0.004%
8/14/2019Asset Management One Co. Ltd.195,522$4.89M0.0%+12.7%0.051%
8/13/2019NumerixS Investment Technologies Inc18,204$0.46M0.1%-63.9%0.005%
8/13/2019Clal Insurance Enterprises Holdings Ltd2,185,892$54.71M1.3%+24.2%0.567%
8/13/2019BlackRock Inc.24,142,634$604.29M0.0%-2.8%6.258%
8/13/2019Nomura Asset Management Co. Ltd.62,629$1.57M0.0%-6.9%0.016%
8/13/2019US Bancorp DE25,086$0.63M0.0%-14.5%0.007%
8/13/2019ETRADE Capital Management LLC9,776$0.25M0.0%-11.7%0.003%
8/13/2019S&T Bank PA127,326$3.19M0.7%+3.8%0.033%
8/13/2019AXA235,300$5.89M0.0%+2,959.4%0.061%
8/13/2019Profund Advisors LLC13,887$0.35M0.0%+7.3%0.004%
8/13/2019Bank of Nova Scotia181,017$4.53M0.0%+7.8%0.047%
8/13/2019Scotia Capital Inc.46,688$1.17M0.0%N/A0.012%
8/13/2019APG Asset Management N.V.358,205$7.87M0.0%-11.8%0.093%
8/13/2019Gargoyle Investment Advisor L.L.C.20,193$0.51M0.6%N/A0.005%
8/13/2019Captrust Financial Advisors1,404$35K0.0%+207.9%0.000%
8/13/2019Parametric Portfolio Associates LLC1,732,194$43.36M0.0%+9.4%0.449%
8/13/2019Grantham Mayo Van Otterloo & Co. LLC174,200$4.36M0.0%+20.1%0.045%
8/13/2019MML Investors Services LLC19,480$0.49M0.0%-3.6%0.005%
8/13/2019Toronto Dominion Bank289,983$7.26M0.0%-66.9%0.075%
8/13/2019Ossiam10,316$0.26M0.0%N/A0.003%
8/13/2019Seeyond16,672$0.42M0.0%-17.9%0.004%
8/13/2019Pictet Asset Management Ltd.174,474$4.37M0.0%+46.6%0.045%
8/13/2019Cibc World Markets Corp446,180$11.17M0.1%+287.6%0.116%
8/13/2019D.A. Davidson & CO.25,771$0.65M0.0%-11.3%0.007%
8/13/2019Glen Harbor Capital Management LLC35,584$0.89M0.0%-56.0%0.009%
8/13/2019Commonwealth Bank of Australia110,913$2.77M0.0%-1.9%0.029%
8/13/2019Tyers Asset Management LLC48,928$1.23M0.0%-56.0%0.013%
8/13/2019Flinton Capital Management LLC62,272$1.56M0.0%-56.0%0.016%
8/13/2019Northern Trust Corp7,172,982$179.54M0.0%+1.3%1.859%
8/13/2019Neuburgh Advisers LLC75,616$1.89M0.1%-56.0%0.020%
8/13/2019Canada Pension Plan Investment Board1,402,983$35.12M0.1%-23.6%0.364%
8/12/2019Public Employees Retirement System of Ohio118,000$2.95M0.0%-7.8%0.031%
8/12/2019GAM Holding AG54,960$1.38M0.1%-7.3%0.014%
8/12/2019Tiverton Asset Management LLC14,868$0.37M0.0%-17.9%0.004%
8/12/2019Pekin Hardy Strauss Inc.470,048$11.77M2.5%+31.2%0.122%
8/12/2019Riverhead Capital Management LLC53,221$1.33M0.0%-56.9%0.014%
8/12/2019Pacer Advisors Inc.34,031$0.85M0.0%+6.7%0.009%
8/12/2019Cadence Capital Management LLC11,979$0.30M0.0%-13.1%0.003%
8/12/2019First Allied Advisory Services Inc.23,541$0.59M0.0%-4.1%0.006%
8/12/2019Bank of New York Mellon Corp6,008,402$150.39M0.0%-19.8%1.557%
8/12/2019Quantamental Technologies LLC7,603$0.19M0.1%+167.5%0.002%
8/12/2019M&T Bank Corp45,966$1.15M0.0%-3.1%0.012%
8/12/2019Pearl River Capital LLC3,578$90K0.6%N/A0.001%
8/12/2019Korea Investment CORP616,600$15.43M0.1%+168.9%0.160%
8/10/2019Charles Schwab Investment Management Inc.2,532,766$63.40M0.0%+2.7%0.657%
8/10/2019Oppenheimer & Co. Inc.23,954$0.60M0.0%-14.6%0.006%
8/9/2019Caisse DE Depot ET Placement DU Quebec89,204$2.23M0.0%+0.9%0.023%
8/9/2019Ontario Teachers Pension Plan Board140,779$3.52M0.1%N/A0.036%
8/9/2019Citizens Financial Group Inc RI168,808$4.23M0.3%-2.4%0.044%
8/9/2019Bank of Montreal Can314,372$7.87M0.0%+69.3%0.081%
(Data available from 1/1/2016 forward)
This page was last updated on 9/18/2019 by MarketBeat.com Staff

Featured Article: Neutral Rating

Enter your email address below to receive a concise daily summary of analysts' upgrades, downgrades and new coverage with MarketBeat.com's FREE daily email newsletter.

Yahoo Gemini Pixel